sensor_id;sensor_type;location;lat;lon;timestamp;P1;durP1;ratioP1;P2;durP2;ratioP2
37847;SDS011;23688;33.130;-117.188;2023-02-01T00:02:08;10.07;;;0.90;;
37847;SDS011;23688;33.130;-117.188;2023-02-01T00:04:34;7.70;;;0.90;;
37847;SDS011;23688;33.130;-117.188;2023-02-01T00:07:01;2.88;;;0.82;;
37847;SDS011;23688;33.130;-117.188;2023-02-01T00:09:28;3.70;;;1.23;;
37847;SDS011;23688;33.130;-117.188;2023-02-01T00:11:54;9.07;;;1.38;;
37847;SDS011;23688;33.130;-117.188;2023-02-01T00:14:24;8.65;;;1.38;;
37847;SDS011;23688;33.130;-117.188;2023-02-01T00:16:51;6.05;;;0.90;;
37847;SDS011;23688;33.130;-117.188;2023-02-01T00:19:17;7.40;;;0.88;;
37847;SDS011;23688;33.130;-117.188;2023-02-01T00:21:43;7.30;;;0.93;;
37847;SDS011;23688;33.130;-117.188;2023-02-01T00:24:12;5.60;;;0.80;;
37847;SDS011;23688;33.130;-117.188;2023-02-01T00:26:40;4.18;;;1.23;;
37847;SDS011;23688;33.130;-117.188;2023-02-01T00:29:12;3.97;;;1.30;;
37847;SDS011;23688;33.130;-117.188;2023-02-01T00:31:41;9.10;;;0.93;;
37847;SDS011;23688;33.130;-117.188;2023-02-01T00:34:09;8.32;;;1.35;;
37847;SDS011;23688;33.130;-117.188;2023-02-01T00:36:41;4.53;;;1.00;;
37847;SDS011;23688;33.130;-117.188;2023-02-01T00:39:08;8.60;;;0.70;;
37847;SDS011;23688;33.130;-117.188;2023-02-01T00:41:35;5.00;;;0.88;;
37847;SDS011;23688;33.130;-117.188;2023-02-01T00:44:02;9.98;;;1.20;;
37847;SDS011;23688;33.130;-117.188;2023-02-01T00:46:29;8.77;;;1.83;;
37847;SDS011;23688;33.130;-117.188;2023-02-01T00:48:56;3.65;;;0.93;;
37847;SDS011;23688;33.130;-117.188;2023-02-01T00:51:24;2.78;;;0.70;;
37847;SDS011;23688;33.130;-117.188;2023-02-01T00:53:52;7.93;;;0.88;;
37847;SDS011;23688;33.130;-117.188;2023-02-01T00:56:18;3.03;;;0.98;;
37847;SDS011;23688;33.130;-117.188;2023-02-01T00:58:45;3.92;;;0.73;;
37847;SDS011;23688;33.130;-117.188;2023-02-01T01:01:16;16.45;;;1.20;;
37847;SDS011;23688;33.130;-117.188;2023-02-01T01:03:46;7.50;;;0.77;;
37847;SDS011;23688;33.130;-117.188;2023-02-01T01:06:15;5.90;;;0.80;;
37847;SDS011;23688;33.130;-117.188;2023-02-01T01:08:43;8.30;;;0.65;;
37847;SDS011;23688;33.130;-117.188;2023-02-01T01:11:18;7.13;;;1.27;;
37847;SDS011;23688;33.130;-117.188;2023-02-01T01:13:46;7.38;;;0.88;;
37847;SDS011;23688;33.130;-117.188;2023-02-01T01:16:13;10.13;;;0.97;;
37847;SDS011;23688;33.130;-117.188;2023-02-01T01:18:40;7.57;;;1.45;;
37847;SDS011;23688;33.130;-117.188;2023-02-01T01:21:08;9.50;;;1.00;;
37847;SDS011;23688;33.130;-117.188;2023-02-01T01:23:35;4.93;;;0.80;;
37847;SDS011;23688;33.130;-117.188;2023-02-01T01:26:09;5.43;;;1.48;;
37847;SDS011;23688;33.130;-117.188;2023-02-01T01:28:38;7.93;;;1.30;;
37847;SDS011;23688;33.130;-117.188;2023-02-01T01:31:12;11.20;;;1.05;;
37847;SDS011;23688;33.130;-117.188;2023-02-01T01:33:40;10.13;;;0.85;;
37847;SDS011;23688;33.130;-117.188;2023-02-01T01:36:10;12.77;;;1.52;;
37847;SDS011;23688;33.130;-117.188;2023-02-01T01:38:37;1.73;;;1.05;;
37847;SDS011;23688;33.130;-117.188;2023-02-01T01:41:07;3.53;;;0.65;;
37847;SDS011;23688;33.130;-117.188;2023-02-01T01:46:22;8.20;;;0.88;;
37847;SDS011;23688;33.130;-117.188;2023-02-01T01:48:52;5.68;;;0.90;;
37847;SDS011;23688;33.130;-117.188;2023-02-01T01:51:58;7.75;;;1.08;;
37847;SDS011;23688;33.130;-117.188;2023-02-01T01:54:29;3.58;;;0.80;;
37847;SDS011;23688;33.130;-117.188;2023-02-01T01:57:12;6.63;;;0.88;;
37847;SDS011;23688;33.130;-117.188;2023-02-01T01:59:46;6.55;;;0.98;;
37847;SDS011;23688;33.130;-117.188;2023-02-01T02:02:16;1.80;;;0.88;;
37847;SDS011;23688;33.130;-117.188;2023-02-01T02:04:43;10.02;;;1.10;;
37847;SDS011;23688;33.130;-117.188;2023-02-01T02:07:11;7.00;;;1.25;;
37847;SDS011;23688;33.130;-117.188;2023-02-01T02:09:41;1.80;;;0.98;;
37847;SDS011;23688;33.130;-117.188;2023-02-01T02:12:08;4.00;;;1.70;;
37847;SDS011;23688;33.130;-117.188;2023-02-01T02:14:35;8.38;;;1.52;;
37847;SDS011;23688;33.130;-117.188;2023-02-01T02:17:07;7.57;;;1.60;;
37847;SDS011;23688;33.130;-117.188;2023-02-01T02:22:28;5.18;;;1.08;;
37847;SDS011;23688;33.130;-117.188;2023-02-01T02:28:14;8.60;;;2.70;;
37847;SDS011;23688;33.130;-117.188;2023-02-01T02:37:33;9.50;;;2.20;;
37847;SDS011;23688;33.130;-117.188;2023-02-01T02:39:36;4.38;;;1.73;;
37847;SDS011;23688;33.130;-117.188;2023-02-01T02:42:12;13.55;;;2.50;;
37847;SDS011;23688;33.130;-117.188;2023-02-01T02:44:59;7.20;;;2.55;;
37847;SDS011;23688;33.130;-117.188;2023-02-01T02:48:01;4.00;;;2.72;;
37847;SDS011;23688;33.130;-117.188;2023-02-01T02:50:42;9.90;;;3.40;;
37847;SDS011;23688;33.130;-117.188;2023-02-01T02:56:28;13.15;;;4.18;;
37847;SDS011;23688;33.130;-117.188;2023-02-01T02:59:16;11.05;;;5.28;;
37847;SDS011;23688;33.130;-117.188;2023-02-01T03:02:04;7.68;;;4.07;;
37847;SDS011;23688;33.130;-117.188;2023-02-01T03:04:53;12.02;;;2.17;;
37847;SDS011;23688;33.130;-117.188;2023-02-01T03:10:14;6.28;;;1.90;;
37847;SDS011;23688;33.130;-117.188;2023-02-01T03:12:49;8.60;;;2.00;;
37847;SDS011;23688;33.130;-117.188;2023-02-01T03:15:47;5.10;;;1.50;;
37847;SDS011;23688;33.130;-117.188;2023-02-01T03:20:54;7.03;;;2.22;;
37847;SDS011;23688;33.130;-117.188;2023-02-01T03:23:23;3.92;;;1.98;;
37847;SDS011;23688;33.130;-117.188;2023-02-01T03:25:56;12.65;;;1.30;;
37847;SDS011;23688;33.130;-117.188;2023-02-01T03:28:25;4.75;;;1.17;;
37847;SDS011;23688;33.130;-117.188;2023-02-01T03:30:56;8.25;;;2.13;;
37847;SDS011;23688;33.130;-117.188;2023-02-01T03:33:24;7.45;;;1.90;;
37847;SDS011;23688;33.130;-117.188;2023-02-01T03:38:37;6.28;;;1.88;;
37847;SDS011;23688;33.130;-117.188;2023-02-01T03:49:35;5.70;;;3.38;;
37847;SDS011;23688;33.130;-117.188;2023-02-01T03:52:06;9.48;;;4.00;;
37847;SDS011;23688;33.130;-117.188;2023-02-01T03:54:39;13.63;;;4.18;;
37847;SDS011;23688;33.130;-117.188;2023-02-01T03:57:08;7.43;;;3.25;;
37847;SDS011;23688;33.130;-117.188;2023-02-01T03:59:39;12.25;;;3.25;;
37847;SDS011;23688;33.130;-117.188;2023-02-01T04:02:07;7.35;;;3.55;;
37847;SDS011;23688;33.130;-117.188;2023-02-01T04:04:34;7.07;;;3.00;;
37847;SDS011;23688;33.130;-117.188;2023-02-01T04:07:00;7.47;;;2.83;;
37847;SDS011;23688;33.130;-117.188;2023-02-01T04:09:27;4.10;;;2.58;;
37847;SDS011;23688;33.130;-117.188;2023-02-01T04:11:53;7.07;;;2.60;;
37847;SDS011;23688;33.130;-117.188;2023-02-01T04:14:20;13.27;;;2.80;;
37847;SDS011;23688;33.130;-117.188;2023-02-01T04:16:46;7.28;;;2.80;;
37847;SDS011;23688;33.130;-117.188;2023-02-01T04:19:13;9.60;;;2.33;;
37847;SDS011;23688;33.130;-117.188;2023-02-01T04:21:40;5.10;;;3.23;;
37847;SDS011;23688;33.130;-117.188;2023-02-01T04:24:07;6.68;;;2.78;;
37847;SDS011;23688;33.130;-117.188;2023-02-01T04:26:33;5.80;;;2.78;;
37847;SDS011;23688;33.130;-117.188;2023-02-01T04:29:00;4.13;;;2.58;;
37847;SDS011;23688;33.130;-117.188;2023-02-01T04:31:26;9.98;;;2.80;;
37847;SDS011;23688;33.130;-117.188;2023-02-01T04:33:53;3.63;;;2.70;;
37847;SDS011;23688;33.130;-117.188;2023-02-01T04:36:22;7.63;;;2.72;;
37847;SDS011;23688;33.130;-117.188;2023-02-01T04:38:49;11.18;;;3.72;;
37847;SDS011;23688;33.130;-117.188;2023-02-01T04:41:17;9.60;;;3.20;;
37847;SDS011;23688;33.130;-117.188;2023-02-01T04:43:47;10.90;;;3.42;;
37847;SDS011;23688;33.130;-117.188;2023-02-01T04:46:14;11.75;;;3.70;;
37847;SDS011;23688;33.130;-117.188;2023-02-01T04:48:40;12.27;;;3.97;;
37847;SDS011;23688;33.130;-117.188;2023-02-01T04:51:07;11.98;;;4.72;;
37847;SDS011;23688;33.130;-117.188;2023-02-01T04:53:34;6.82;;;4.25;;
37847;SDS011;23688;33.130;-117.188;2023-02-01T04:56:00;17.20;;;4.65;;
37847;SDS011;23688;33.130;-117.188;2023-02-01T04:58:27;11.70;;;4.57;;
37847;SDS011;23688;33.130;-117.188;2023-02-01T05:00:53;14.02;;;4.78;;
37847;SDS011;23688;33.130;-117.188;2023-02-01T05:03:19;11.45;;;3.85;;
37847;SDS011;23688;33.130;-117.188;2023-02-01T05:05:49;6.13;;;2.78;;
37847;SDS011;23688;33.130;-117.188;2023-02-01T05:08:17;9.90;;;2.65;;
37847;SDS011;23688;33.130;-117.188;2023-02-01T05:10:44;4.72;;;1.52;;
37847;SDS011;23688;33.130;-117.188;2023-02-01T05:13:11;4.57;;;1.58;;
37847;SDS011;23688;33.130;-117.188;2023-02-01T05:15:55;5.75;;;1.45;;
37847;SDS011;23688;33.130;-117.188;2023-02-01T05:18:21;7.40;;;1.10;;
37847;SDS011;23688;33.130;-117.188;2023-02-01T05:20:48;1.65;;;1.00;;
37847;SDS011;23688;33.130;-117.188;2023-02-01T05:23:15;2.28;;;1.05;;
37847;SDS011;23688;33.130;-117.188;2023-02-01T05:25:41;2.13;;;0.82;;
37847;SDS011;23688;33.130;-117.188;2023-02-01T05:28:07;1.55;;;0.60;;
37847;SDS011;23688;33.130;-117.188;2023-02-01T05:30:36;3.47;;;0.82;;
37847;SDS011;23688;33.130;-117.188;2023-02-01T05:33:03;3.65;;;1.98;;
37847;SDS011;23688;33.130;-117.188;2023-02-01T05:35:29;7.03;;;1.98;;
37847;SDS011;23688;33.130;-117.188;2023-02-01T05:37:56;4.85;;;2.08;;
37847;SDS011;23688;33.130;-117.188;2023-02-01T05:40:22;6.88;;;3.80;;
37847;SDS011;23688;33.130;-117.188;2023-02-01T05:42:49;14.65;;;6.22;;
37847;SDS011;23688;33.130;-117.188;2023-02-01T05:45:15;13.15;;;6.55;;
37847;SDS011;23688;33.130;-117.188;2023-02-01T05:47:41;19.15;;;6.38;;
37847;SDS011;23688;33.130;-117.188;2023-02-01T05:50:08;15.80;;;5.75;;
37847;SDS011;23688;33.130;-117.188;2023-02-01T05:52:34;11.60;;;5.20;;
37847;SDS011;23688;33.130;-117.188;2023-02-01T05:55:01;9.88;;;5.40;;
37847;SDS011;23688;33.130;-117.188;2023-02-01T05:57:29;16.65;;;5.68;;
37847;SDS011;23688;33.130;-117.188;2023-02-01T05:59:56;12.33;;;5.27;;
37847;SDS011;23688;33.130;-117.188;2023-02-01T06:02:22;16.63;;;5.57;;
37847;SDS011;23688;33.130;-117.188;2023-02-01T06:04:49;13.13;;;5.07;;
37847;SDS011;23688;33.130;-117.188;2023-02-01T06:07:16;8.55;;;4.38;;
37847;SDS011;23688;33.130;-117.188;2023-02-01T06:09:43;10.30;;;3.90;;
37847;SDS011;23688;33.130;-117.188;2023-02-01T06:12:09;9.38;;;3.42;;
37847;SDS011;23688;33.130;-117.188;2023-02-01T06:14:36;10.25;;;3.20;;
37847;SDS011;23688;33.130;-117.188;2023-02-01T06:17:02;10.15;;;3.90;;
37847;SDS011;23688;33.130;-117.188;2023-02-01T06:19:30;18.90;;;4.90;;
37847;SDS011;23688;33.130;-117.188;2023-02-01T06:21:57;8.50;;;3.45;;
37847;SDS011;23688;33.130;-117.188;2023-02-01T06:24:23;12.57;;;4.72;;
37847;SDS011;23688;33.130;-117.188;2023-02-01T06:26:49;10.40;;;4.18;;
37847;SDS011;23688;33.130;-117.188;2023-02-01T06:29:16;10.60;;;4.22;;
37847;SDS011;23688;33.130;-117.188;2023-02-01T06:31:42;11.80;;;4.78;;
37847;SDS011;23688;33.130;-117.188;2023-02-01T06:34:09;12.00;;;4.63;;
37847;SDS011;23688;33.130;-117.188;2023-02-01T06:36:35;11.95;;;4.60;;
37847;SDS011;23688;33.130;-117.188;2023-02-01T06:39:01;8.07;;;4.35;;
37847;SDS011;23688;33.130;-117.188;2023-02-01T06:41:28;14.55;;;4.32;;
37847;SDS011;23688;33.130;-117.188;2023-02-01T06:43:54;13.10;;;5.78;;
37847;SDS011;23688;33.130;-117.188;2023-02-01T06:46:20;9.77;;;3.72;;
37847;SDS011;23688;33.130;-117.188;2023-02-01T06:48:46;7.40;;;3.75;;
37847;SDS011;23688;33.130;-117.188;2023-02-01T06:51:21;11.40;;;4.68;;
37847;SDS011;23688;33.130;-117.188;2023-02-01T06:53:50;17.02;;;5.03;;
37847;SDS011;23688;33.130;-117.188;2023-02-01T06:56:16;11.27;;;3.78;;
37847;SDS011;23688;33.130;-117.188;2023-02-01T06:58:43;8.15;;;3.88;;
37847;SDS011;23688;33.130;-117.188;2023-02-01T07:01:10;4.15;;;2.75;;
37847;SDS011;23688;33.130;-117.188;2023-02-01T07:03:37;8.32;;;2.75;;
37847;SDS011;23688;33.130;-117.188;2023-02-01T07:06:05;4.95;;;2.78;;
37847;SDS011;23688;33.130;-117.188;2023-02-01T07:08:34;6.55;;;2.67;;
37847;SDS011;23688;33.130;-117.188;2023-02-01T07:11:06;2.97;;;1.90;;
37847;SDS011;23688;33.130;-117.188;2023-02-01T07:13:34;5.85;;;2.78;;
37847;SDS011;23688;33.130;-117.188;2023-02-01T07:16:01;6.50;;;2.80;;
37847;SDS011;23688;33.130;-117.188;2023-02-01T07:18:30;5.80;;;2.10;;
37847;SDS011;23688;33.130;-117.188;2023-02-01T07:20:58;4.13;;;2.38;;
37847;SDS011;23688;33.130;-117.188;2023-02-01T07:23:25;4.82;;;2.55;;
37847;SDS011;23688;33.130;-117.188;2023-02-01T07:25:53;8.10;;;2.58;;
37847;SDS011;23688;33.130;-117.188;2023-02-01T07:28:25;6.85;;;3.30;;
37847;SDS011;23688;33.130;-117.188;2023-02-01T07:30:54;5.75;;;2.47;;
37847;SDS011;23688;33.130;-117.188;2023-02-01T07:33:21;6.93;;;2.58;;
37847;SDS011;23688;33.130;-117.188;2023-02-01T07:35:49;5.05;;;2.10;;
37847;SDS011;23688;33.130;-117.188;2023-02-01T07:38:16;4.30;;;2.25;;
37847;SDS011;23688;33.130;-117.188;2023-02-01T07:40:44;8.32;;;1.60;;
37847;SDS011;23688;33.130;-117.188;2023-02-01T07:43:11;2.90;;;1.88;;
37847;SDS011;23688;33.130;-117.188;2023-02-01T07:45:37;5.22;;;1.63;;
37847;SDS011;23688;33.130;-117.188;2023-02-01T07:48:03;4.05;;;1.42;;
37847;SDS011;23688;33.130;-117.188;2023-02-01T07:50:30;1.58;;;1.02;;
37847;SDS011;23688;33.130;-117.188;2023-02-01T07:52:58;2.67;;;1.05;;
37847;SDS011;23688;33.130;-117.188;2023-02-01T07:55:25;3.20;;;1.00;;
37847;SDS011;23688;33.130;-117.188;2023-02-01T07:57:52;4.43;;;1.10;;
37847;SDS011;23688;33.130;-117.188;2023-02-01T08:00:22;5.38;;;1.10;;
37847;SDS011;23688;33.130;-117.188;2023-02-01T08:03:06;3.92;;;0.98;;
37847;SDS011;23688;33.130;-117.188;2023-02-01T08:05:34;2.00;;;0.98;;
37847;SDS011;23688;33.130;-117.188;2023-02-01T08:08:02;1.95;;;1.17;;
37847;SDS011;23688;33.130;-117.188;2023-02-01T08:10:28;6.57;;;1.60;;
37847;SDS011;23688;33.130;-117.188;2023-02-01T08:12:57;2.20;;;0.77;;
37847;SDS011;23688;33.130;-117.188;2023-02-01T08:15:25;10.52;;;1.13;;
37847;SDS011;23688;33.130;-117.188;2023-02-01T08:17:52;3.78;;;0.73;;
37847;SDS011;23688;33.130;-117.188;2023-02-01T08:20:20;5.97;;;0.90;;
37847;SDS011;23688;33.130;-117.188;2023-02-01T08:22:51;3.70;;;0.88;;
37847;SDS011;23688;33.130;-117.188;2023-02-01T08:25:17;7.45;;;0.95;;
37847;SDS011;23688;33.130;-117.188;2023-02-01T08:27:44;1.15;;;0.60;;
37847;SDS011;23688;33.130;-117.188;2023-02-01T08:30:11;2.95;;;1.08;;
37847;SDS011;23688;33.130;-117.188;2023-02-01T08:32:38;7.95;;;0.88;;
37847;SDS011;23688;33.130;-117.188;2023-02-01T08:35:05;4.25;;;0.90;;
37847;SDS011;23688;33.130;-117.188;2023-02-01T08:37:31;4.80;;;1.00;;
37847;SDS011;23688;33.130;-117.188;2023-02-01T08:39:57;2.10;;;1.13;;
37847;SDS011;23688;33.130;-117.188;2023-02-01T08:42:24;1.55;;;1.20;;
37847;SDS011;23688;33.130;-117.188;2023-02-01T08:45:08;3.47;;;2.28;;
37847;SDS011;23688;33.130;-117.188;2023-02-01T08:47:35;3.97;;;2.13;;
37847;SDS011;23688;33.130;-117.188;2023-02-01T08:50:02;6.75;;;2.88;;
37847;SDS011;23688;33.130;-117.188;2023-02-01T08:52:28;7.72;;;3.55;;
37847;SDS011;23688;33.130;-117.188;2023-02-01T08:54:55;8.90;;;4.30;;
37847;SDS011;23688;33.130;-117.188;2023-02-01T08:57:21;8.52;;;4.05;;
37847;SDS011;23688;33.130;-117.188;2023-02-01T08:59:47;7.05;;;3.30;;
37847;SDS011;23688;33.130;-117.188;2023-02-01T09:02:14;6.68;;;2.90;;
37847;SDS011;23688;33.130;-117.188;2023-02-01T09:04:42;14.23;;;3.23;;
37847;SDS011;23688;33.130;-117.188;2023-02-01T09:07:09;7.50;;;2.90;;
37847;SDS011;23688;33.130;-117.188;2023-02-01T09:09:36;12.60;;;3.00;;
37847;SDS011;23688;33.130;-117.188;2023-02-01T09:12:03;7.18;;;2.83;;
37847;SDS011;23688;33.130;-117.188;2023-02-01T09:14:30;6.18;;;2.35;;
37847;SDS011;23688;33.130;-117.188;2023-02-01T09:16:56;6.57;;;2.28;;
37847;SDS011;23688;33.130;-117.188;2023-02-01T09:19:23;9.70;;;3.13;;
37847;SDS011;23688;33.130;-117.188;2023-02-01T09:21:49;7.00;;;2.30;;
37847;SDS011;23688;33.130;-117.188;2023-02-01T09:24:15;6.65;;;2.83;;
37847;SDS011;23688;33.130;-117.188;2023-02-01T09:26:42;7.72;;;2.85;;
37847;SDS011;23688;33.130;-117.188;2023-02-01T09:29:08;7.35;;;2.78;;
37847;SDS011;23688;33.130;-117.188;2023-02-01T09:31:37;7.00;;;3.30;;
37847;SDS011;23688;33.130;-117.188;2023-02-01T09:34:05;10.50;;;3.42;;
37847;SDS011;23688;33.130;-117.188;2023-02-01T09:36:32;10.13;;;3.90;;
37847;SDS011;23688;33.130;-117.188;2023-02-01T09:38:59;7.38;;;3.53;;
37847;SDS011;23688;33.130;-117.188;2023-02-01T09:43:57;8.23;;;2.97;;
37847;SDS011;23688;33.130;-117.188;2023-02-01T09:46:46;8.75;;;3.10;;
37847;SDS011;23688;33.130;-117.188;2023-02-01T09:49:17;8.38;;;3.80;;
37847;SDS011;23688;33.130;-117.188;2023-02-01T09:51:48;13.60;;;3.67;;
37847;SDS011;23688;33.130;-117.188;2023-02-01T09:54:24;13.15;;;3.85;;
37847;SDS011;23688;33.130;-117.188;2023-02-01T09:57:08;5.57;;;2.70;;
37847;SDS011;23688;33.130;-117.188;2023-02-01T09:59:44;7.38;;;3.10;;
37847;SDS011;23688;33.130;-117.188;2023-02-01T10:02:22;8.85;;;3.72;;
37847;SDS011;23688;33.130;-117.188;2023-02-01T10:04:52;8.65;;;3.25;;
37847;SDS011;23688;33.130;-117.188;2023-02-01T10:10:21;5.18;;;2.13;;
37847;SDS011;23688;33.130;-117.188;2023-02-01T10:18:59;8.95;;;2.10;;
37847;SDS011;23688;33.130;-117.188;2023-02-01T10:27:16;2.08;;;1.02;;
37847;SDS011;23688;33.130;-117.188;2023-02-01T10:29:51;2.00;;;1.23;;
37847;SDS011;23688;33.130;-117.188;2023-02-01T10:32:24;3.83;;;1.30;;
37847;SDS011;23688;33.130;-117.188;2023-02-01T10:34:59;1.75;;;1.13;;
37847;SDS011;23688;33.130;-117.188;2023-02-01T10:37:48;4.00;;;1.27;;
37847;SDS011;23688;33.130;-117.188;2023-02-01T10:42:50;2.75;;;0.90;;
37847;SDS011;23688;33.130;-117.188;2023-02-01T10:45:20;2.30;;;1.00;;
37847;SDS011;23688;33.130;-117.188;2023-02-01T10:47:50;2.67;;;0.82;;
37847;SDS011;23688;33.130;-117.188;2023-02-01T10:56:08;4.82;;;1.10;;
37847;SDS011;23688;33.130;-117.188;2023-02-01T10:58:43;2.72;;;0.98;;
37847;SDS011;23688;33.130;-117.188;2023-02-01T11:01:21;3.38;;;0.90;;
37847;SDS011;23688;33.130;-117.188;2023-02-01T11:03:57;1.15;;;0.90;;
37847;SDS011;23688;33.130;-117.188;2023-02-01T11:06:29;3.05;;;0.90;;
37847;SDS011;23688;33.130;-117.188;2023-02-01T11:09:00;1.48;;;1.30;;
37847;SDS011;23688;33.130;-117.188;2023-02-01T11:11:55;2.72;;;1.13;;
37847;SDS011;23688;33.130;-117.188;2023-02-01T11:14:28;1.20;;;0.80;;
37847;SDS011;23688;33.130;-117.188;2023-02-01T11:19:45;2.55;;;1.05;;
37847;SDS011;23688;33.130;-117.188;2023-02-01T11:22:22;1.65;;;0.65;;
37847;SDS011;23688;33.130;-117.188;2023-02-01T11:24:52;5.28;;;1.30;;
37847;SDS011;23688;33.130;-117.188;2023-02-01T11:27:20;5.30;;;1.10;;
37847;SDS011;23688;33.130;-117.188;2023-02-01T11:29:53;2.90;;;0.93;;
37847;SDS011;23688;33.130;-117.188;2023-02-01T11:32:24;3.45;;;0.85;;
37847;SDS011;23688;33.130;-117.188;2023-02-01T11:34:53;3.00;;;1.05;;
37847;SDS011;23688;33.130;-117.188;2023-02-01T11:42:22;1.73;;;0.68;;
37847;SDS011;23688;33.130;-117.188;2023-02-01T11:44:48;7.75;;;1.15;;
37847;SDS011;23688;33.130;-117.188;2023-02-01T11:47:31;3.33;;;1.00;;
37847;SDS011;23688;33.130;-117.188;2023-02-01T11:50:12;2.58;;;0.70;;
37847;SDS011;23688;33.130;-117.188;2023-02-01T11:52:56;4.25;;;0.90;;
37847;SDS011;23688;33.130;-117.188;2023-02-01T11:56:02;4.63;;;1.33;;
37847;SDS011;23688;33.130;-117.188;2023-02-01T12:01:52;4.07;;;0.60;;
37847;SDS011;23688;33.130;-117.188;2023-02-01T12:07:34;1.65;;;0.70;;
37847;SDS011;23688;33.130;-117.188;2023-02-01T12:13:14;0.95;;;0.70;;
37847;SDS011;23688;33.130;-117.188;2023-02-01T12:29:48;4.85;;;1.05;;
37847;SDS011;23688;33.130;-117.188;2023-02-01T12:51:52;2.53;;;1.52;;
37847;SDS011;23688;33.130;-117.188;2023-02-01T12:57:02;7.43;;;1.42;;
37847;SDS011;23688;33.130;-117.188;2023-02-01T12:59:34;3.72;;;1.30;;
37847;SDS011;23688;33.130;-117.188;2023-02-01T13:02:27;3.15;;;1.20;;
37847;SDS011;23688;33.130;-117.188;2023-02-01T13:10:35;2.85;;;0.98;;
37847;SDS011;23688;33.130;-117.188;2023-02-01T13:13:28;5.30;;;1.33;;
37847;SDS011;23688;33.130;-117.188;2023-02-01T13:18:45;4.38;;;1.50;;
37847;SDS011;23688;33.130;-117.188;2023-02-01T13:21:16;5.50;;;1.90;;
37847;SDS011;23688;33.130;-117.188;2023-02-01T13:23:49;5.88;;;2.15;;
37847;SDS011;23688;33.130;-117.188;2023-02-01T13:26:17;4.57;;;1.73;;
37847;SDS011;23688;33.130;-117.188;2023-02-01T13:28:45;8.32;;;2.33;;
37847;SDS011;23688;33.130;-117.188;2023-02-01T13:43:26;3.25;;;1.77;;
37847;SDS011;23688;33.130;-117.188;2023-02-01T13:45:56;6.47;;;1.75;;
37847;SDS011;23688;33.130;-117.188;2023-02-01T13:48:37;5.13;;;2.17;;
37847;SDS011;23688;33.130;-117.188;2023-02-01T13:51:13;4.78;;;1.92;;
37847;SDS011;23688;33.130;-117.188;2023-02-01T13:53:45;6.22;;;2.10;;
37847;SDS011;23688;33.130;-117.188;2023-02-01T13:56:20;10.15;;;2.20;;
37847;SDS011;23688;33.130;-117.188;2023-02-01T13:58:49;1.65;;;1.20;;
37847;SDS011;23688;33.130;-117.188;2023-02-01T14:21:58;7.35;;;2.13;;
37847;SDS011;23688;33.130;-117.188;2023-02-01T14:24:50;9.32;;;2.08;;
37847;SDS011;23688;33.130;-117.188;2023-02-01T14:27:26;8.75;;;3.10;;
37847;SDS011;23688;33.130;-117.188;2023-02-01T14:29:58;7.28;;;2.28;;
37847;SDS011;23688;33.130;-117.188;2023-02-01T14:32:31;9.57;;;1.90;;
37847;SDS011;23688;33.130;-117.188;2023-02-01T14:35:01;6.28;;;1.75;;
37847;SDS011;23688;33.130;-117.188;2023-02-01T14:37:32;5.32;;;2.03;;
37847;SDS011;23688;33.130;-117.188;2023-02-01T14:47:44;2.15;;;1.45;;
37847;SDS011;23688;33.130;-117.188;2023-02-01T14:55:41;8.45;;;1.38;;
37847;SDS011;23688;33.130;-117.188;2023-02-01T15:01:20;5.63;;;1.50;;
37847;SDS011;23688;33.130;-117.188;2023-02-01T15:04:01;3.97;;;1.63;;
37847;SDS011;23688;33.130;-117.188;2023-02-01T15:07:05;4.60;;;1.70;;
37847;SDS011;23688;33.130;-117.188;2023-02-01T15:09:33;15.18;;;2.20;;
37847;SDS011;23688;33.130;-117.188;2023-02-01T15:12:15;8.80;;;1.20;;
37847;SDS011;23688;33.130;-117.188;2023-02-01T15:14:46;4.10;;;1.48;;
37847;SDS011;23688;33.130;-117.188;2023-02-01T15:17:30;4.32;;;1.10;;
37847;SDS011;23688;33.130;-117.188;2023-02-01T15:20:15;8.43;;;2.03;;
37847;SDS011;23688;33.130;-117.188;2023-02-01T15:22:51;2.58;;;0.82;;
37847;SDS011;23688;33.130;-117.188;2023-02-01T15:25:30;4.95;;;1.20;;
37847;SDS011;23688;33.130;-117.188;2023-02-01T15:27:58;2.58;;;1.00;;
37847;SDS011;23688;33.130;-117.188;2023-02-01T15:30:26;4.50;;;1.20;;
37847;SDS011;23688;33.130;-117.188;2023-02-01T15:33:07;7.57;;;1.13;;
37847;SDS011;23688;33.130;-117.188;2023-02-01T15:35:42;1.65;;;1.23;;
37847;SDS011;23688;33.130;-117.188;2023-02-01T15:40:55;4.35;;;1.48;;
37847;SDS011;23688;33.130;-117.188;2023-02-01T15:43:28;3.20;;;1.70;;
37847;SDS011;23688;33.130;-117.188;2023-02-01T15:46:01;4.28;;;1.38;;
37847;SDS011;23688;33.130;-117.188;2023-02-01T15:48:36;8.95;;;1.55;;
37847;SDS011;23688;33.130;-117.188;2023-02-01T15:51:11;7.30;;;1.80;;
37847;SDS011;23688;33.130;-117.188;2023-02-01T15:53:42;9.20;;;1.73;;
37847;SDS011;23688;33.130;-117.188;2023-02-01T15:56:11;7.00;;;1.85;;
37847;SDS011;23688;33.130;-117.188;2023-02-01T15:58:41;7.18;;;1.40;;
37847;SDS011;23688;33.130;-117.188;2023-02-01T16:01:11;2.42;;;1.17;;
37847;SDS011;23688;33.130;-117.188;2023-02-01T16:03:40;5.53;;;1.38;;
37847;SDS011;23688;33.130;-117.188;2023-02-01T16:06:09;4.90;;;1.35;;
37847;SDS011;23688;33.130;-117.188;2023-02-01T16:08:49;8.95;;;1.92;;
37847;SDS011;23688;33.130;-117.188;2023-02-01T16:11:24;5.25;;;1.50;;
37847;SDS011;23688;33.130;-117.188;2023-02-01T16:13:56;5.45;;;1.60;;
37847;SDS011;23688;33.130;-117.188;2023-02-01T16:16:27;2.72;;;1.55;;
37847;SDS011;23688;33.130;-117.188;2023-02-01T16:18:54;2.70;;;1.40;;
37847;SDS011;23688;33.130;-117.188;2023-02-01T16:21:20;11.25;;;1.73;;
37847;SDS011;23688;33.130;-117.188;2023-02-01T16:23:50;12.85;;;2.50;;
37847;SDS011;23688;33.130;-117.188;2023-02-01T16:26:17;6.28;;;1.92;;
37847;SDS011;23688;33.130;-117.188;2023-02-01T16:28:45;12.77;;;1.90;;
37847;SDS011;23688;33.130;-117.188;2023-02-01T16:31:12;7.35;;;1.70;;
37847;SDS011;23688;33.130;-117.188;2023-02-01T16:33:48;11.90;;;1.55;;
37847;SDS011;23688;33.130;-117.188;2023-02-01T16:36:16;10.88;;;1.75;;
37847;SDS011;23688;33.130;-117.188;2023-02-01T16:38:43;7.05;;;1.65;;
37847;SDS011;23688;33.130;-117.188;2023-02-01T16:41:12;13.13;;;2.03;;
37847;SDS011;23688;33.130;-117.188;2023-02-01T16:43:39;7.38;;;1.58;;
37847;SDS011;23688;33.130;-117.188;2023-02-01T16:46:08;4.18;;;0.95;;
37847;SDS011;23688;33.130;-117.188;2023-02-01T16:48:41;9.73;;;1.45;;
37847;SDS011;23688;33.130;-117.188;2023-02-01T16:51:12;4.00;;;0.80;;
37847;SDS011;23688;33.130;-117.188;2023-02-01T16:53:41;2.63;;;0.70;;
37847;SDS011;23688;33.130;-117.188;2023-02-01T16:56:28;3.28;;;0.80;;
37847;SDS011;23688;33.130;-117.188;2023-02-01T16:58:56;2.60;;;0.77;;
37847;SDS011;23688;33.130;-117.188;2023-02-01T17:01:23;6.32;;;0.80;;
37847;SDS011;23688;33.130;-117.188;2023-02-01T17:03:49;6.35;;;0.90;;
37847;SDS011;23688;33.130;-117.188;2023-02-01T17:06:16;1.83;;;0.77;;
37847;SDS011;23688;33.130;-117.188;2023-02-01T17:08:46;7.63;;;1.38;;
37847;SDS011;23688;33.130;-117.188;2023-02-01T17:11:16;1.42;;;0.80;;
37847;SDS011;23688;33.130;-117.188;2023-02-01T17:13:43;2.40;;;0.70;;
37847;SDS011;23688;33.130;-117.188;2023-02-01T17:18:56;1.85;;;0.52;;
37847;SDS011;23688;33.130;-117.188;2023-02-01T17:21:25;0.93;;;0.57;;
37847;SDS011;23688;33.130;-117.188;2023-02-01T17:23:54;3.35;;;0.60;;